createdAt,value
2024-03-12T04:02:45.281Z,14.95
2024-03-12T04:05:13.568Z,13.18
2024-03-12T04:07:42.019Z,12.90
2024-03-12T04:10:11.633Z,15.93
2024-03-12T04:12:40.456Z,15.65
2024-03-12T04:15:07.604Z,13.77
2024-03-12T04:17:34.262Z,16.40
2024-03-12T04:20:02.149Z,15.00
2024-03-12T04:22:29.692Z,14.85
2024-03-12T04:24:56.223Z,15.63
2024-03-12T04:27:22.812Z,14.65
2024-03-12T04:29:49.340Z,14.57
2024-03-12T04:32:16.295Z,14.57
2024-03-12T04:34:42.958Z,14.68
2024-03-12T04:37:13.752Z,12.32
2024-03-12T04:39:40.467Z,14.60
2024-03-12T04:42:07.807Z,15.93
2024-03-12T04:44:34.797Z,14.82
2024-03-12T04:47:01.645Z,14.57
2024-03-12T04:49:28.593Z,15.93
2024-03-12T04:51:55.151Z,13.30
2024-03-12T04:54:23.009Z,13.68
2024-03-12T04:56:51.928Z,13.95
2024-03-12T04:59:19.016Z,14.02
2024-03-12T05:01:50.562Z,15.15
2024-03-12T05:04:22.505Z,14.60
2024-03-12T05:06:50.427Z,13.45
2024-03-12T05:09:19.222Z,16.80
2024-03-12T05:11:48.709Z,13.98
2024-03-12T05:16:42.616Z,15.02
2024-03-12T05:19:11.992Z,10.38
2024-03-12T05:24:05.987Z,14.35
2024-03-12T05:26:33.162Z,14.70
2024-03-12T05:29:01.010Z,13.15
2024-03-12T05:31:39.342Z,15.57
2024-03-12T05:34:28.532Z,14.30
2024-03-12T05:37:04.743Z,15.95
2024-03-12T05:40:01.590Z,16.02
2024-03-12T05:42:47.044Z,12.25
2024-03-12T05:45:34.098Z,15.02
2024-03-12T05:48:13.426Z,15.20
2024-03-12T05:50:41.931Z,15.60
2024-03-12T05:53:08.547Z,15.60
2024-03-12T05:55:35.582Z,15.10
2024-03-12T05:58:02.371Z,16.00
2024-03-12T06:00:31.160Z,16.35
2024-03-12T06:02:57.663Z,17.13
2024-03-12T06:05:24.189Z,17.45
2024-03-12T06:07:50.774Z,16.85
2024-03-12T06:10:20.202Z,16.10
2024-03-12T06:12:46.901Z,15.75
2024-03-12T06:15:13.485Z,16.63
2024-03-12T06:17:41.334Z,15.73
2024-03-12T06:20:11.480Z,16.83
2024-03-12T06:22:38.303Z,16.45
2024-03-12T06:25:06.789Z,16.08
2024-03-12T06:27:33.792Z,16.42
2024-03-12T06:30:00.644Z,16.52
2024-03-12T06:32:32.266Z,17.25
2024-03-12T06:35:00.232Z,17.30
2024-03-12T06:37:29.762Z,17.48
2024-03-12T06:39:56.471Z,16.35
2024-03-12T06:42:27.381Z,15.95
2024-03-12T06:44:53.976Z,16.63
2024-03-12T06:47:20.446Z,15.38
2024-03-12T06:49:48.713Z,16.75
2024-03-12T06:52:16.811Z,15.43
2024-03-12T06:54:45.140Z,14.15
2024-03-12T06:57:15.014Z,15.05
2024-03-12T06:59:50.960Z,15.00
2024-03-12T07:02:21.525Z,15.98
2024-03-12T07:04:52.071Z,15.70
2024-03-12T07:07:20.956Z,15.48
2024-03-12T07:09:48.170Z,13.98
2024-03-12T07:12:19.461Z,14.60
2024-03-12T07:14:55.570Z,14.93
2024-03-12T07:17:22.922Z,15.02
2024-03-12T07:19:50.590Z,14.32
2024-03-12T07:22:20.376Z,14.07
2024-03-12T07:24:48.532Z,13.23
2024-03-12T07:27:15.252Z,14.55
2024-03-12T07:29:44.404Z,14.07
2024-03-12T07:34:40.322Z,13.30
2024-03-12T07:37:07.913Z,13.23
2024-03-12T07:39:37.389Z,14.25
2024-03-12T07:44:42.023Z,12.52
2024-03-12T07:47:11.110Z,13.88
2024-03-12T07:49:38.251Z,14.07
2024-03-12T07:52:07.357Z,14.57
2024-03-12T07:54:34.329Z,12.32
2024-03-12T07:57:00.991Z,15.30
2024-03-12T07:59:32.432Z,13.48
2024-03-12T08:01:59.201Z,14.57
2024-03-12T08:04:28.655Z,13.32
2024-03-12T08:06:55.671Z,15.27
2024-03-12T08:09:22.425Z,12.98
2024-03-12T08:11:49.818Z,13.30
2024-03-12T08:14:17.828Z,12.52
2024-03-12T08:16:45.949Z,12.52
2024-03-12T08:19:13.824Z,13.02
2024-03-12T08:21:40.703Z,11.77
2024-03-12T08:24:08.757Z,11.93
2024-03-12T08:26:35.328Z,11.75
2024-03-12T08:29:03.006Z,12.45
2024-03-12T08:31:33.435Z,11.98
2024-03-12T08:39:00.900Z,10.40
2024-03-12T08:41:27.442Z,11.13
2024-03-12T08:43:54.054Z,12.13
2024-03-12T08:46:20.828Z,11.27
2024-03-12T08:48:47.493Z,11.65
2024-03-12T08:51:15.608Z,11.38
2024-03-12T08:53:42.324Z,11.60
2024-03-12T08:56:09.010Z,10.85
2024-03-12T08:58:35.509Z,10.73
2024-03-12T09:01:02.311Z,12.10
2024-03-12T09:03:30.235Z,12.25
2024-03-12T09:05:56.943Z,12.02
2024-03-12T09:08:25.283Z,11.77
2024-03-12T09:10:52.050Z,10.68
2024-03-12T09:13:20.462Z,10.50
2024-03-12T09:15:49.523Z,10.80
2024-03-12T09:18:23.546Z,10.75
2024-03-12T09:20:52.884Z,11.88
2024-03-12T09:23:20.011Z,10.90
2024-03-12T09:25:48.121Z,11.13
2024-03-12T09:28:17.641Z,10.93
2024-03-12T09:30:44.387Z,11.00
2024-03-12T09:33:11.896Z,10.13
2024-03-12T09:35:38.874Z,10.20
2024-03-12T09:38:05.544Z,10.27
2024-03-12T09:40:33.832Z,11.48
2024-03-12T09:43:04.514Z,10.38
2024-03-12T09:45:31.726Z,10.63
2024-03-12T09:47:58.333Z,9.88
2024-03-12T09:50:26.159Z,11.23
2024-03-12T09:52:53.530Z,10.80
2024-03-12T09:55:22.636Z,10.70
2024-03-12T09:57:49.283Z,10.90
2024-03-12T10:00:23.679Z,11.90
2024-03-12T10:02:50.904Z,11.45
2024-03-12T10:05:22.639Z,10.85
2024-03-12T10:08:14.129Z,12.60
2024-03-12T10:10:42.404Z,12.15
2024-03-12T10:13:15.733Z,13.35
2024-03-12T10:15:51.677Z,11.38
2024-03-12T10:18:19.622Z,11.00
2024-03-12T10:20:46.990Z,12.52
2024-03-12T10:23:16.506Z,12.07
2024-03-12T10:25:45.683Z,10.93
2024-03-12T10:28:15.437Z,12.38
2024-03-12T10:30:43.106Z,11.30
2024-03-12T10:33:14.442Z,12.43
2024-03-12T10:35:45.195Z,13.10
2024-03-12T10:38:14.619Z,12.45
2024-03-12T10:40:42.572Z,11.70
2024-03-12T10:43:09.676Z,12.63
2024-03-12T10:45:37.024Z,12.52
2024-03-12T10:48:07.176Z,12.57
2024-03-12T10:50:36.327Z,12.63
2024-03-12T10:53:03.207Z,13.05
2024-03-12T10:55:34.057Z,12.65
2024-03-12T10:58:05.445Z,12.48
2024-03-12T11:00:32.560Z,13.02
2024-03-12T11:03:00.423Z,11.60
2024-03-12T11:05:33.584Z,13.48
2024-03-12T11:08:03.407Z,12.20
2024-03-12T11:10:33.787Z,12.50
2024-03-12T11:13:01.814Z,13.90
2024-03-12T11:15:28.733Z,13.07
2024-03-12T11:17:56.287Z,13.60
2024-03-12T11:20:28.144Z,12.00
2024-03-12T11:23:01.104Z,12.70
2024-03-12T11:25:33.681Z,13.13
2024-03-12T11:28:23.409Z,13.10
2024-03-12T11:31:01.918Z,13.32
2024-03-12T11:33:42.421Z,12.15
2024-03-12T11:36:09.762Z,12.82
2024-03-12T11:38:36.299Z,12.27
2024-03-12T11:41:04.635Z,12.57
2024-03-12T11:43:39.242Z,13.18
2024-03-12T11:46:08.038Z,13.55
2024-03-12T11:48:36.778Z,12.13
2024-03-12T11:51:10.153Z,12.75
2024-03-12T11:53:37.628Z,12.85
2024-03-12T11:56:17.662Z,13.93
2024-03-12T11:58:49.722Z,12.55
2024-03-12T12:01:17.610Z,12.32
2024-03-12T12:03:45.152Z,13.07
2024-03-12T12:06:12.112Z,11.75
2024-03-12T12:08:46.016Z,12.57
2024-03-12T12:11:21.891Z,11.98
2024-03-12T12:13:49.003Z,12.68
2024-03-12T12:16:17.388Z,12.70
2024-03-12T12:18:45.364Z,11.63
2024-03-12T12:21:13.505Z,12.40
2024-03-12T12:23:40.674Z,11.90
2024-03-12T12:26:13.092Z,12.35
2024-03-12T12:28:41.376Z,12.15
2024-03-12T12:31:12.813Z,13.32
2024-03-12T12:33:42.199Z,12.88
2024-03-12T12:38:38.076Z,11.65
2024-03-12T12:41:08.047Z,12.48
2024-03-12T12:43:34.859Z,13.05
2024-03-12T12:46:07.094Z,11.43
2024-03-12T12:48:40.054Z,12.15
2024-03-12T12:51:08.762Z,11.32
2024-03-12T12:53:38.014Z,11.20
2024-03-12T12:58:34.832Z,11.07
2024-03-12T13:01:05.232Z,9.85
2024-03-12T13:03:39.057Z,10.43
2024-03-12T13:06:19.969Z,11.10
2024-03-12T13:08:48.322Z,10.68
2024-03-12T13:11:19.597Z,11.60
2024-03-12T13:13:49.055Z,12.20
2024-03-12T13:16:19.112Z,11.93
2024-03-12T13:18:47.472Z,11.38
2024-03-12T13:21:15.533Z,12.02
2024-03-12T13:23:42.207Z,11.45
2024-03-12T13:26:09.004Z,11.00
2024-03-12T13:28:36.227Z,11.00
2024-03-12T13:31:05.783Z,13.07
2024-03-12T13:33:33.799Z,10.80
2024-03-12T13:36:00.681Z,12.20
2024-03-12T13:38:28.216Z,12.65
2024-03-12T13:40:58.081Z,11.57
2024-03-12T13:43:27.123Z,12.30
2024-03-12T13:45:56.192Z,12.88
2024-03-12T13:48:25.059Z,12.05
2024-03-12T13:50:57.329Z,12.85
2024-03-12T13:53:24.395Z,11.52
2024-03-12T13:55:50.972Z,11.48
2024-03-12T13:58:17.839Z,12.38
2024-03-12T14:00:45.569Z,11.73
2024-03-12T14:03:12.494Z,11.80
2024-03-12T14:05:39.202Z,12.82
2024-03-12T14:08:07.296Z,12.60
2024-03-12T14:10:33.932Z,12.30
2024-03-12T14:13:00.509Z,12.52
2024-03-12T14:15:27.033Z,12.05
2024-03-12T14:17:54.039Z,12.65
2024-03-12T14:20:22.710Z,12.02
2024-03-12T14:22:49.263Z,11.52
2024-03-12T14:25:17.589Z,13.25
2024-03-12T14:27:44.910Z,11.20
2024-03-12T14:30:14.201Z,12.15
2024-03-12T14:35:07.755Z,11.80
2024-03-12T14:37:34.279Z,12.45
2024-03-12T14:40:08.707Z,12.73
2024-03-12T14:42:38.810Z,11.07
2024-03-12T14:45:06.096Z,11.27
2024-03-12T14:47:33.431Z,12.77
2024-03-12T14:50:00.011Z,11.75
2024-03-12T14:52:26.661Z,12.18
2024-03-12T14:54:54.814Z,12.55
2024-03-12T14:57:21.563Z,11.70
2024-03-12T14:59:49.663Z,12.57
2024-03-12T15:02:16.328Z,11.75
2024-03-12T15:04:43.335Z,11.15
2024-03-12T15:07:10.772Z,12.38
2024-03-12T15:09:38.881Z,12.07
2024-03-12T15:12:06.515Z,12.00
2024-03-12T15:14:33.092Z,12.63
2024-03-12T15:17:00.944Z,11.50
2024-03-12T15:19:28.947Z,11.77
2024-03-12T15:21:55.592Z,11.55
2024-03-12T15:24:22.546Z,12.13
2024-03-12T15:26:50.025Z,11.25
2024-03-12T15:29:18.315Z,12.73
2024-03-12T15:31:46.881Z,11.70
2024-03-12T15:34:15.025Z,11.60
2024-03-12T15:36:45.467Z,13.20
2024-03-12T15:39:12.468Z,11.68
2024-03-12T15:41:39.037Z,11.90
2024-03-12T15:44:07.465Z,12.65
2024-03-12T15:46:34.185Z,10.82
2024-03-12T15:49:01.640Z,11.75
2024-03-12T15:51:29.918Z,12.25
2024-03-12T15:53:56.532Z,11.25
2024-03-12T15:56:24.192Z,12.10
2024-03-12T15:58:52.064Z,12.10
2024-03-12T16:01:19.050Z,11.95
2024-03-12T16:03:45.786Z,11.65
2024-03-12T16:06:15.048Z,12.00
2024-03-12T16:08:47.833Z,10.88
2024-03-12T16:11:16.427Z,11.25
2024-03-12T16:13:43.156Z,12.13
2024-03-12T16:16:09.848Z,12.05
2024-03-12T16:18:36.426Z,12.02
2024-03-12T16:21:03.165Z,12.18
2024-03-12T16:23:29.714Z,11.77
2024-03-12T16:25:57.757Z,11.18
2024-03-12T16:28:24.318Z,11.68
2024-03-12T16:30:53.177Z,12.13
2024-03-12T16:33:19.727Z,11.90
2024-03-12T16:35:46.295Z,11.15
2024-03-12T16:38:13.767Z,10.20
2024-03-12T16:40:40.722Z,10.48
2024-03-12T16:43:09.044Z,11.57
2024-03-12T16:45:35.676Z,11.13
2024-03-12T16:48:05.638Z,10.43
2024-03-12T16:50:32.367Z,11.68
2024-03-12T16:52:59.742Z,10.95
2024-03-12T16:55:26.840Z,11.02
2024-03-12T16:57:53.902Z,11.85
2024-03-12T17:00:22.498Z,11.52
2024-03-12T17:02:49.532Z,10.43
2024-03-12T17:05:19.819Z,11.32
2024-03-12T17:07:49.847Z,11.00
2024-03-12T17:10:17.396Z,10.48
2024-03-12T17:12:45.092Z,11.10
2024-03-12T17:15:15.111Z,10.73
2024-03-12T17:17:43.556Z,10.30
2024-03-12T17:20:11.214Z,11.70
2024-03-12T17:22:38.883Z,10.98
2024-03-12T17:25:06.570Z,11.40
2024-03-12T17:27:34.797Z,10.30
2024-03-12T17:30:01.930Z,10.43
2024-03-12T17:32:29.330Z,9.88
2024-03-12T17:35:00.297Z,10.88
2024-03-12T17:37:35.058Z,9.50
2024-03-12T17:40:02.040Z,9.60
2024-03-12T17:42:30.177Z,8.93
2024-03-12T17:44:57.155Z,7.90
2024-03-12T17:47:25.483Z,9.60
2024-03-12T17:49:54.344Z,10.48
2024-03-12T17:52:23.237Z,8.90
2024-03-12T17:54:50.652Z,8.70
2024-03-12T17:57:18.311Z,8.52
2024-03-12T17:59:45.877Z,9.05
2024-03-12T18:02:15.767Z,9.63
2024-03-12T18:04:42.921Z,8.55
2024-03-12T18:07:21.889Z,10.25
2024-03-12T18:09:52.799Z,11.30
2024-03-12T18:12:19.391Z,11.40
2024-03-12T18:14:45.943Z,11.00
2024-03-12T18:17:12.486Z,11.18
2024-03-12T18:19:40.520Z,10.90
2024-03-12T18:22:07.381Z,10.18
2024-03-12T18:24:34.112Z,9.52
2024-03-12T18:27:01.922Z,8.30
2024-03-12T18:29:28.651Z,7.88
2024-03-12T18:31:57.990Z,6.82
2024-03-12T18:36:56.968Z,6.32
2024-03-12T18:39:23.877Z,5.53
2024-03-12T18:41:50.579Z,5.55
2024-03-12T18:44:18.408Z,6.30
2024-03-12T18:46:44.905Z,5.80
2024-03-12T18:49:13.031Z,6.45
2024-03-12T18:51:40.552Z,6.90
2024-03-12T18:54:08.708Z,6.35
2024-03-12T18:56:35.670Z,6.55
2024-03-12T18:59:02.867Z,7.57
2024-03-12T19:01:32.208Z,7.85
2024-03-12T19:06:27.293Z,7.15
2024-03-12T19:08:54.947Z,7.80
2024-03-12T19:11:21.883Z,7.68
2024-03-12T19:13:49.145Z,7.82
2024-03-12T19:16:20.156Z,7.30
2024-03-12T19:18:50.422Z,6.95
2024-03-12T19:21:17.874Z,6.72
2024-03-12T19:23:49.309Z,6.90
2024-03-12T19:26:16.233Z,6.93
2024-03-12T19:28:43.096Z,7.65
2024-03-12T19:31:10.508Z,6.78
2024-03-12T19:33:38.295Z,7.22
2024-03-12T19:36:07.486Z,6.22
2024-03-12T19:38:34.592Z,6.35
2024-03-12T19:41:02.481Z,7.30
2024-03-12T19:43:30.006Z,6.85
2024-03-12T19:45:59.567Z,7.20
2024-03-12T19:48:28.212Z,7.35
2024-03-12T19:50:55.862Z,7.18
2024-03-12T19:53:23.736Z,7.50
2024-03-12T19:55:52.097Z,7.43
2024-03-12T19:58:19.529Z,8.10
2024-03-12T20:00:47.963Z,8.52
2024-03-12T20:03:16.361Z,8.73
2024-03-12T20:05:43.249Z,10.93
2024-03-12T20:08:10.506Z,9.32
2024-03-12T20:10:38.781Z,8.75
2024-03-12T20:13:06.626Z,9.98
2024-03-12T20:15:33.816Z,10.07
2024-03-12T20:18:01.943Z,10.18
2024-03-12T20:20:29.038Z,8.80
2024-03-12T20:22:56.476Z,9.20
2024-03-12T20:25:23.627Z,8.82
2024-03-12T20:27:55.155Z,8.85
2024-03-12T20:30:28.011Z,10.05
2024-03-12T20:32:58.500Z,11.43
2024-03-12T20:35:25.140Z,9.15
2024-03-12T20:37:51.689Z,9.32
2024-03-12T20:40:20.046Z,9.43
2024-03-12T20:42:49.460Z,7.38
2024-03-12T20:45:21.629Z,7.63
2024-03-12T20:47:48.828Z,9.07
2024-03-12T20:50:18.309Z,8.85
2024-03-12T20:55:11.944Z,6.53
2024-03-12T20:57:39.589Z,6.82
2024-03-12T21:00:17.696Z,6.53
2024-03-12T21:02:46.938Z,6.43
2024-03-12T21:05:13.664Z,5.47
2024-03-12T21:07:40.341Z,5.20
2024-03-12T21:10:08.187Z,5.80
2024-03-12T21:12:37.769Z,5.28
2024-03-12T21:15:07.656Z,4.70
2024-03-12T21:17:34.627Z,3.72
2024-03-12T21:20:12.490Z,4.53
2024-03-12T21:22:39.148Z,3.97
2024-03-12T21:25:07.672Z,4.05
2024-03-12T21:27:34.326Z,3.78
2024-03-12T21:30:02.244Z,4.10
2024-03-12T21:32:28.816Z,3.58
2024-03-12T21:34:55.396Z,3.75
2024-03-12T21:37:23.394Z,3.67
2024-03-12T21:39:50.007Z,4.18
2024-03-12T21:42:17.399Z,4.57
2024-03-12T21:44:45.092Z,4.25
2024-03-12T21:47:11.678Z,4.13
2024-03-12T21:49:38.215Z,3.38
2024-03-12T21:52:05.663Z,5.45
2024-03-12T21:54:33.602Z,4.38
2024-03-12T21:57:00.844Z,5.07
2024-03-12T21:59:27.349Z,4.70
2024-03-12T22:01:54.192Z,5.25
2024-03-12T22:04:23.661Z,6.03
2024-03-12T22:06:50.830Z,5.32
2024-03-12T22:09:17.594Z,5.78
2024-03-12T22:11:46.396Z,6.28
2024-03-12T22:14:12.959Z,6.32
2024-03-12T22:16:42.522Z,5.97
2024-03-12T22:19:09.737Z,6.38
2024-03-12T22:21:37.391Z,6.97
2024-03-12T22:24:05.328Z,6.43
2024-03-12T22:26:31.967Z,6.15
2024-03-12T22:28:59.815Z,6.10
2024-03-12T22:31:26.328Z,6.18
2024-03-12T22:33:52.888Z,6.55
2024-03-12T22:36:19.385Z,6.05
2024-03-12T22:38:46.507Z,5.78
2024-03-12T22:41:14.169Z,5.65
2024-03-12T22:43:41.316Z,5.95
2024-03-12T22:46:11.628Z,5.85
2024-03-12T22:48:39.324Z,5.32
2024-03-12T22:51:07.757Z,6.32
2024-03-12T22:53:34.466Z,5.60
2024-03-12T22:56:02.314Z,6.47
2024-03-12T22:58:29.817Z,7.05
2024-03-12T23:00:57.732Z,6.78
2024-03-12T23:03:26.357Z,6.68
2024-03-12T23:05:53.906Z,6.35
2024-03-12T23:08:21.865Z,6.75
2024-03-12T23:10:48.677Z,7.00
2024-03-12T23:13:16.761Z,6.72
